Time;durP1;ratioP1;P1;durP2;ratioP2;P2;SDS_P1;SDS_P2;PMS_P1;PMS_P2;Temp;Humidity;BMP_temperature;BMP_pressure;BME280_temperature;BME280_humidity;BME280_pressure;Samples;Min_cycle;Max_cycle;Signal;HPM_P1;HPM_P2
2022/06/30 00:00:16;;;;;;;7.00;6.30;;;19.00;99.90;;;;;;5071143;28;20248;-49
2022/06/30 00:02:43;;;;;;;6.17;5.77;;;19.00;99.90;;;;;;5072060;28;20236;-49
2022/06/30 00:05:11;;;;;;;6.30;5.90;;;19.00;99.90;;;;;;5072710;28;20201;-49
2022/06/30 00:07:38;;;;;;;10.53;6.07;;;19.00;99.90;;;;;;5070142;28;20197;-48
2022/06/30 00:10:05;;;;;;;5.60;5.20;;;19.10;99.90;;;;;;5068064;28;20229;-49
2022/06/30 00:12:32;;;;;;;5.47;5.00;;;19.00;99.90;;;;;;5063731;28;20201;-49
2022/06/30 00:15:01;;;;;;;5.47;5.10;;;18.90;99.90;;;;;;5069172;28;20205;-49
2022/06/30 00:17:28;;;;;;;6.47;6.00;;;18.90;99.90;;;;;;5070792;28;20193;-49
2022/06/30 00:19:55;;;;;;;5.80;5.33;;;18.90;99.90;;;;;;5070173;28;20755;-49
2022/06/30 00:22:22;;;;;;;7.30;5.53;;;18.80;99.90;;;;;;5071701;28;20201;-49
2022/06/30 00:24:49;;;;;;;5.83;5.53;;;18.80;99.90;;;;;;5071514;28;20225;-48
2022/06/30 00:27:16;;;;;;;6.07;5.77;;;18.80;99.90;;;;;;5071866;28;20206;-48
2022/06/30 00:29:43;;;;;;;5.43;5.20;;;18.80;99.90;;;;;;5067370;28;20225;-49
2022/06/30 00:32:11;;;;;;;6.73;6.23;;;18.70;99.90;;;;;;5062565;28;20208;-48
2022/06/30 00:34:38;;;;;;;6.30;5.90;;;18.70;99.90;;;;;;5072048;28;20200;-49
2022/06/30 00:37:05;;;;;;;6.60;6.00;;;18.70;99.90;;;;;;5072188;28;20736;-49
2022/06/30 00:39:33;;;;;;;6.30;5.80;;;18.60;99.90;;;;;;5071001;28;20243;-49
2022/06/30 00:42:01;;;;;;;5.60;5.30;;;18.60;99.90;;;;;;5064609;28;20193;-49
2022/06/30 00:44:29;;;;;;;6.30;5.80;;;18.60;99.90;;;;;;5070765;28;20610;-48
2022/06/30 00:46:57;;;;;;;6.37;6.07;;;18.60;99.90;;;;;;5071940;28;20667;-48
2022/06/30 00:49:25;;;;;;;6.53;5.97;;;18.60;99.90;;;;;;5064441;28;20225;-49
2022/06/30 00:51:52;;;;;;;6.57;6.17;;;18.50;99.90;;;;;;5068515;28;20247;-49
2022/06/30 00:54:22;;;;;;;5.53;5.33;;;18.50;99.90;;;;;;5069793;28;20567;-49
2022/06/30 00:56:50;;;;;;;5.50;5.20;;;18.50;99.90;;;;;;5071531;28;20201;-49
2022/06/30 00:59:20;;;;;;;5.90;5.53;;;18.50;99.90;;;;;;5071891;28;20221;-49
2022/06/30 01:01:49;;;;;;;6.90;6.30;;;18.60;99.90;;;;;;5071479;28;20200;-49
2022/06/30 01:04:18;;;;;;;6.23;5.73;;;18.60;99.90;;;;;;5068524;28;20214;-49
2022/06/30 01:06:47;;;;;;;6.93;6.40;;;18.60;99.90;;;;;;5068098;28;20194;-49
2022/06/30 01:12:41;;;;;;;6.30;5.70;;;18.60;99.90;;;;;;5063037;28;20217;-49
2022/06/30 01:14:49;;;;;;;6.20;5.80;;;18.70;99.90;;;;;;5058653;28;20271;-49
2022/06/30 01:17:16;;;;;;;6.10;5.60;;;18.70;99.90;;;;;;5064582;28;20197;-49
2022/06/30 01:19:52;;;;;;;5.97;5.67;;;18.80;99.90;;;;;;5066745;28;20362;-48
2022/06/30 01:22:21;;;;;;;6.40;6.10;;;18.80;99.90;;;;;;5067956;28;20721;-49
2022/06/30 01:24:48;;;;;;;6.23;5.63;;;18.80;99.90;;;;;;5066161;28;20714;-49
2022/06/30 01:27:15;;;;;;;5.83;5.53;;;18.90;99.90;;;;;;5068402;28;20201;-48
2022/06/30 01:29:42;;;;;;;7.37;6.87;;;18.90;99.90;;;;;;5062140;28;20571;-49
2022/06/30 01:32:10;;;;;;;6.00;5.63;;;18.90;99.90;;;;;;5064839;28;20197;-49
2022/06/30 01:34:37;;;;;;;5.20;4.70;;;18.90;99.90;;;;;;5065622;28;20193;-49
2022/06/30 01:37:05;;;;;;;6.03;5.73;;;18.90;99.90;;;;;;5071286;28;20208;-49
2022/06/30 01:39:33;;;;;;;6.47;5.57;;;18.90;99.90;;;;;;5070305;28;20228;-48
2022/06/30 01:42:02;;;;;;;6.10;5.70;;;18.90;99.90;;;;;;5068607;28;20213;-49
2022/06/30 01:44:32;;;;;;;6.60;5.50;;;18.90;99.90;;;;;;5069734;28;20217;-49
2022/06/30 01:46:59;;;;;;;5.90;5.40;;;18.90;99.90;;;;;;5065670;28;20202;-49
2022/06/30 01:49:26;;;;;;;6.80;6.13;;;18.90;99.90;;;;;;5070240;28;20221;-48
2022/06/30 01:51:54;;;;;;;6.20;6.00;;;19.00;99.90;;;;;;5070442;28;20209;-49
2022/06/30 01:54:21;;;;;;;5.90;5.40;;;19.00;99.90;;;;;;5071467;28;20259;-49
2022/06/30 01:56:50;;;;;;;5.80;5.40;;;18.90;99.90;;;;;;5064581;28;20337;-49
2022/06/30 01:59:17;;;;;;;5.43;5.13;;;18.80;99.90;;;;;;5070833;28;20213;-48
2022/06/30 02:01:44;;;;;;;5.30;5.10;;;18.80;99.90;;;;;;5060721;28;20581;-48
2022/06/30 02:06:55;;;;;;;6.17;5.70;;;18.80;99.90;;;;;;5068911;28;20204;-49
2022/06/30 02:09:22;;;;;;;5.87;5.57;;;18.80;99.90;;;;;;5063678;28;20216;-48
2022/06/30 02:12:44;;;;;;;6.87;6.57;;;18.70;99.90;;;;;;5067013;28;20197;-49
2022/06/30 02:14:38;;;;;;;7.10;6.37;;;18.70;99.90;;;;;;5070267;28;20193;-49
2022/06/30 02:17:05;;;;;;;7.00;6.50;;;18.70;99.90;;;;;;5070874;28;20216;-49
2022/06/30 02:19:32;;;;;;;5.73;5.50;;;18.60;99.90;;;;;;5069245;28;20225;-49
2022/06/30 02:21:59;;;;;;;5.70;5.37;;;18.60;99.90;;;;;;5069626;28;20208;-49
2022/06/30 02:24:26;;;;;;;6.50;6.20;;;18.60;99.90;;;;;;5071065;28;20213;-49
2022/06/30 02:26:55;;;;;;;6.87;6.43;;;18.60;99.90;;;;;;5070611;28;20578;-49
2022/06/30 02:29:22;;;;;;;7.73;7.17;;;18.60;99.90;;;;;;5068814;28;20664;-48
2022/06/30 02:31:49;;;;;;;7.33;6.80;;;18.60;99.90;;;;;;5069748;28;20209;-48
2022/06/30 02:34:16;;;;;;;7.07;6.57;;;18.60;99.90;;;;;;5070553;28;20205;-48
2022/06/30 02:36:43;;;;;;;6.70;6.40;;;18.60;99.90;;;;;;5070102;28;20201;-49
2022/06/30 02:39:10;;;;;;;7.40;6.80;;;18.60;99.90;;;;;;5051097;28;20222;-48
2022/06/30 02:41:37;;;;;;;7.00;6.60;;;18.50;99.90;;;;;;5060029;28;20229;-48
2022/06/30 02:44:06;;;;;;;7.73;7.03;;;18.50;99.90;;;;;;5066461;28;20226;-49
2022/06/30 02:46:33;;;;;;;7.13;6.53;;;18.60;99.90;;;;;;5064813;28;20198;-49
2022/06/30 02:49:00;;;;;;;8.23;7.53;;;18.50;99.90;;;;;;5070668;28;20274;-49
2022/06/30 02:51:27;;;;;;;8.87;7.60;;;18.50;99.90;;;;;;5072168;28;20582;-49
2022/06/30 02:53:54;;;;;;;8.17;7.67;;;18.50;99.90;;;;;;5074359;28;20201;-49
2022/06/30 02:56:21;;;;;;;9.40;8.20;;;18.50;99.90;;;;;;5074468;28;20204;-49
2022/06/30 02:58:49;;;;;;;7.50;7.10;;;18.40;99.90;;;;;;5063917;28;20554;-48
2022/06/30 03:01:17;;;;;;;8.53;7.87;;;18.40;99.90;;;;;;5071344;28;20694;-49
2022/06/30 03:03:44;;;;;;;8.43;7.80;;;18.40;99.90;;;;;;5074231;28;20197;-48
2022/06/30 03:06:11;;;;;;;7.20;6.73;;;18.30;99.90;;;;;;5069591;28;20255;-49
2022/06/30 03:08:38;;;;;;;7.43;7.03;;;18.30;99.90;;;;;;5065803;28;20197;-49
2022/06/30 03:11:05;;;;;;;6.37;5.97;;;18.30;99.90;;;;;;5071342;28;20217;-48
2022/06/30 03:13:33;;;;;;;7.50;7.00;;;18.20;99.90;;;;;;5069831;28;20318;-48
2022/06/30 03:16:01;;;;;;;7.47;6.97;;;18.30;99.90;;;;;;5060679;28;20197;-48
2022/06/30 03:18:30;;;;;;;6.97;6.60;;;18.40;99.90;;;;;;5064144;28;20225;-49
2022/06/30 03:20:57;;;;;;;6.53;6.10;;;18.40;99.90;;;;;;5062908;28;20221;-50
2022/06/30 03:23:26;;;;;;;8.27;7.33;;;18.40;99.90;;;;;;5071087;28;20288;-50
2022/06/30 03:25:53;;;;;;;7.57;6.90;;;18.30;99.90;;;;;;5066120;28;20217;-50
2022/06/30 03:28:20;;;;;;;7.13;6.73;;;18.30;99.90;;;;;;5053058;28;20206;-48
2022/06/30 03:30:48;;;;;;;7.27;6.63;;;18.20;99.90;;;;;;5060898;28;20221;-49
2022/06/30 03:33:15;;;;;;;6.60;6.20;;;18.20;99.90;;;;;;5065417;28;20205;-50
2022/06/30 03:35:44;;;;;;;6.80;6.50;;;18.20;99.90;;;;;;5057983;28;20202;-49
2022/06/30 03:38:15;;;;;;;8.60;8.00;;;18.20;99.90;;;;;;5053556;28;20251;-49
2022/06/30 03:40:42;;;;;;;9.77;8.77;;;18.20;99.90;;;;;;5060194;28;20307;-49
2022/06/30 03:43:10;;;;;;;10.40;9.40;;;18.20;99.90;;;;;;5055989;28;20201;-50
2022/06/30 03:45:37;;;;;;;9.70;8.73;;;18.20;99.90;;;;;;5064670;28;20217;-50
2022/06/30 03:48:06;;;;;;;8.73;8.17;;;18.10;99.90;;;;;;5059480;28;20201;-50
2022/06/30 03:50:33;;;;;;;9.63;8.73;;;18.20;99.90;;;;;;5068957;28;20221;-50
2022/06/30 03:53:02;;;;;;;8.60;8.17;;;18.20;99.90;;;;;;5059803;28;20735;-50
2022/06/30 03:55:30;;;;;;;7.83;7.10;;;18.10;99.90;;;;;;5063225;28;20197;-50
2022/06/30 03:57:57;;;;;;;8.83;8.00;;;18.10;99.90;;;;;;5062346;28;20247;-50
2022/06/30 04:00:24;;;;;;;12.17;8.73;;;18.20;99.90;;;;;;5061641;28;20224;-50
2022/06/30 04:02:51;;;;;;;7.97;7.57;;;18.20;99.90;;;;;;5059485;28;20667;-50
2022/06/30 04:05:18;;;;;;;7.97;7.17;;;18.30;99.90;;;;;;5058481;28;20218;-50
2022/06/30 04:07:48;;;;;;;8.63;8.13;;;18.30;99.90;;;;;;5068083;28;20255;-50
2022/06/30 04:10:18;;;;;;;9.30;8.67;;;18.30;99.90;;;;;;5062744;28;20227;-50
2022/06/30 04:12:45;;;;;;;10.27;9.37;;;18.40;99.90;;;;;;5060973;28;20617;-49
2022/06/30 04:15:12;;;;;;;9.23;8.60;;;18.40;99.90;;;;;;5056150;28;20197;-48
2022/06/30 04:17:39;;;;;;;10.63;9.33;;;18.40;99.90;;;;;;5065597;28;20194;-48
2022/06/30 04:20:15;;;;;;;9.70;8.57;;;18.40;99.90;;;;;;5061165;28;20225;-48
2022/06/30 04:22:44;;;;;;;8.80;8.23;;;18.40;99.90;;;;;;5054798;28;20194;-47
2022/06/30 04:25:12;;;;;;;8.30;7.80;;;18.40;99.90;;;;;;5063951;28;20252;-47
2022/06/30 04:27:51;;;;;;;9.47;7.67;;;18.40;99.90;;;;;;5068452;28;20201;-47
2022/06/30 04:32:37;;;;;;;7.23;6.83;;;18.40;99.90;;;;;;5063830;28;20221;-47
2022/06/30 04:33:07;;;;;;;8.23;7.53;;;18.40;99.90;;;;;;5068568;28;20201;-47
2022/06/30 04:35:34;;;;;;;8.97;8.17;;;18.50;99.90;;;;;;5066932;28;20197;-47
2022/06/30 04:38:02;;;;;;;11.13;9.60;;;18.60;99.90;;;;;;5067085;28;20201;-47
2022/06/30 04:43:15;;;;;;;10.20;9.13;;;18.90;99.90;;;;;;5060182;28;20242;-47
2022/06/30 04:45:43;;;;;;;8.53;7.93;;;19.00;99.90;;;;;;5050593;28;20221;-48
2022/06/30 04:48:11;;;;;;;7.63;7.13;;;19.10;99.90;;;;;;5063584;28;20201;-47
2022/06/30 04:50:38;;;;;;;11.67;10.30;;;19.20;99.90;;;;;;5087544;22;20920;-54
2022/06/30 04:53:06;;;;;;;9.77;8.90;;;19.30;99.90;;;;;;5029192;28;20618;-54
2022/06/30 04:55:33;;;;;;;9.23;8.57;;;19.30;99.90;;;;;;5030279;28;20220;-54
2022/06/30 04:58:00;;;;;;;10.20;9.33;;;19.30;99.90;;;;;;5029985;28;20719;-54
2022/06/30 05:00:28;;;;;;;11.53;8.67;;;19.40;99.90;;;;;;5030514;28;20243;-54
2022/06/30 05:02:55;;;;;;;11.23;8.37;;;19.60;99.90;;;;;;5027869;28;20218;-54
2022/06/30 05:05:22;;;;;;;9.43;8.63;;;19.80;99.90;;;;;;5032449;28;20226;-54
2022/06/30 05:07:50;;;;;;;7.47;6.90;;;20.10;99.90;;;;;;5030095;28;20277;-55
2022/06/30 05:10:17;;;;;;;8.97;8.17;;;20.60;99.90;;;;;;5030009;28;20664;-54
2022/06/30 05:12:44;;;;;;;7.53;7.13;;;21.10;99.90;;;;;;5028942;28;20214;-56
2022/06/30 05:15:11;;;;;;;8.20;7.60;;;21.70;99.90;;;;;;5030044;28;20714;-56
2022/06/30 05:17:39;;;;;;;7.20;6.77;;;22.50;99.90;;;;;;5029936;28;20551;-56
2022/06/30 05:20:07;;;;;;;6.80;6.23;;;23.20;99.90;;;;;;5030020;28;20194;-56
2022/06/30 05:22:35;;;;;;;6.33;5.83;;;23.90;99.90;;;;;;5028693;28;20273;-56
2022/06/30 05:27:47;;;;;;;6.33;5.80;;;25.20;99.90;;;;;;5030689;28;20204;-56
2022/06/30 05:30:14;;;;;;;7.13;5.33;;;25.80;99.90;;;;;;5031283;28;20202;-56
2022/06/30 05:32:42;;;;;;;4.87;4.57;;;26.30;99.90;;;;;;5028856;28;20268;-56
2022/06/30 05:35:10;;;;;;;5.90;4.83;;;26.40;99.90;;;;;;5022718;28;20249;-57
2022/06/30 05:37:37;;;;;;;5.20;4.90;;;27.30;99.90;;;;;;5029194;28;20230;-57
2022/06/30 05:40:06;;;;;;;4.35;4.15;;;27.80;99.90;;;;;;5028594;28;20238;-57
2022/06/30 05:42:33;;;;;;;4.85;4.55;;;27.90;99.90;;;;;;5027522;28;20316;-57
2022/06/30 05:45:00;;;;;;;5.38;4.97;;;28.20;99.90;;;;;;5026835;28;20223;-57
2022/06/30 05:47:27;;;;;;;4.93;4.10;;;28.30;99.90;;;;;;5030941;28;20198;-57
2022/06/30 05:49:55;;;;;;;5.85;4.63;;;28.60;99.90;;;;;;5029409;28;20209;-57
2022/06/30 05:52:22;;;;;;;7.25;4.10;;;28.80;99.90;;;;;;5028603;28;20232;-57
2022/06/30 05:54:49;;;;;;;4.22;3.92;;;29.00;99.90;;;;;;5029407;28;20198;-57
2022/06/30 05:57:16;;;;;;;4.50;4.10;;;29.00;99.90;;;;;;5029442;28;20688;-57
2022/06/30 05:59:46;;;;;;;4.15;3.85;;;29.30;99.90;;;;;;5029993;28;20255;-57
2022/06/30 06:02:13;;;;;;;3.85;3.58;;;30.00;99.90;;;;;;5029496;28;20225;-58
2022/06/30 06:04:40;;;;;;;3.92;3.72;;;30.40;99.90;;;;;;5029640;28;20280;-57
2022/06/30 06:07:09;;;;;;;5.15;4.45;;;30.70;99.90;;;;;;5029166;28;20199;-57
2022/06/30 06:09:36;;;;;;;3.95;3.75;;;30.90;99.90;;;;;;5029255;28;20221;-57
2022/06/30 06:12:04;;;;;;;4.90;4.20;;;30.90;99.90;;;;;;5028003;28;20234;-57
2022/06/30 06:14:31;;;;;;;4.40;4.10;;;30.90;99.90;;;;;;5028867;28;20696;-58
2022/06/30 06:16:59;;;;;;;4.32;4.22;;;30.80;99.90;;;;;;5030695;28;20258;-58
2022/06/30 06:19:26;;;;;;;4.60;4.20;;;30.90;99.90;;;;;;5029469;28;20225;-58
2022/06/30 06:21:53;;;;;;;6.43;4.35;;;30.80;99.90;;;;;;5028799;28;20214;-57
2022/06/30 06:24:21;;;;;;;3.90;3.63;;;30.90;99.90;;;;;;5031202;28;20199;-57
2022/06/30 06:26:48;;;;;;;3.97;3.78;;;31.10;99.90;;;;;;5034988;28;20217;-58
2022/06/30 06:29:15;;;;;;;4.40;4.10;;;31.00;99.90;;;;;;5032497;28;20276;-58
2022/06/30 06:31:43;;;;;;;5.60;5.10;;;30.70;99.90;;;;;;5030166;28;20241;-60
2022/06/30 06:34:10;;;;;;;4.93;4.50;;;30.00;99.90;;;;;;5031004;28;20228;-58
2022/06/30 06:36:38;;;;;;;5.47;5.03;;;28.60;99.90;;;;;;5032679;28;20241;-57
2022/06/30 06:39:05;;;;;;;5.05;3.75;;;27.50;99.90;;;;;;5032623;28;20202;-57
2022/06/30 06:41:35;;;;;;;4.55;4.15;;;26.80;99.90;;;;;;5029379;28;20237;-57
2022/06/30 06:44:01;;;;;;;4.43;4.05;;;26.00;99.90;;;;;;5030449;28;20219;-57
2022/06/30 06:46:28;;;;;;;4.57;4.28;;;25.70;99.90;;;;;;5026733;28;20306;-57
2022/06/30 06:48:57;;;;;;;5.07;4.88;;;25.40;99.90;;;;;;5032275;28;20627;-58
2022/06/30 06:51:24;;;;;;;5.50;5.00;;;25.10;99.90;;;;;;5034817;28;20711;-57
2022/06/30 06:53:51;;;;;;;4.57;4.38;;;25.00;99.90;;;;;;5032504;28;20577;-57
2022/06/30 06:56:18;;;;;;;4.50;4.30;;;24.80;99.90;;;;;;5032379;28;20194;-58
2022/06/30 06:58:47;;;;;;;5.13;4.68;;;24.90;99.90;;;;;;5030626;28;20195;-58
2022/06/30 07:01:14;;;;;;;4.38;4.13;;;25.70;99.90;;;;;;5031410;28;20273;-58
2022/06/30 07:03:41;;;;;;;5.13;4.72;;;26.80;99.90;;;;;;5031550;28;20289;-58
2022/06/30 07:06:09;;;;;;;4.53;4.22;;;27.90;99.90;;;;;;5032227;28;20931;-58
2022/06/30 07:08:36;;;;;;;4.75;4.40;;;28.70;99.90;;;;;;5033087;28;20216;-58
2022/06/30 07:11:04;;;;;;;4.20;3.90;;;29.70;99.90;;;;;;5031624;28;20268;-57
2022/06/30 07:13:32;;;;;;;4.05;3.85;;;30.50;99.90;;;;;;5031852;28;20329;-58
2022/06/30 07:16:01;;;;;;;3.72;3.42;;;31.00;99.90;;;;;;5032012;28;20187;-59
2022/06/30 07:18:28;;;;;;;4.30;4.00;;;31.30;99.90;;;;;;5031908;28;20206;-58
2022/06/30 07:20:55;;;;;;;4.78;4.38;;;31.40;99.90;;;;;;5034911;28;20592;-58
2022/06/30 07:23:22;;;;;;;4.63;4.00;;;31.40;99.90;;;;;;5030621;28;20202;-58
2022/06/30 07:25:49;;;;;;;4.47;4.25;;;32.00;99.90;;;;;;5031741;28;20242;-58
2022/06/30 07:28:17;;;;;;;6.95;4.13;;;31.90;99.90;;;;;;5030848;28;20194;-59
2022/06/30 07:30:43;;;;;;;4.13;3.90;;;32.30;99.90;;;;;;5030969;28;20301;-59
2022/06/30 07:33:12;;;;;;;4.57;4.28;;;32.80;99.90;;;;;;5031233;28;20286;-58
2022/06/30 07:35:39;;;;;;;4.47;4.18;;;33.30;99.90;;;;;;5032876;28;20199;-58
2022/06/30 07:38:06;;;;;;;4.13;3.83;;;33.70;99.90;;;;;;5022493;28;20619;-58
2022/06/30 07:40:33;;;;;;;4.68;3.90;;;33.60;99.90;;;;;;5012389;28;20223;-58
2022/06/30 07:43:00;;;;;;;5.18;4.55;;;33.20;99.90;;;;;;5011838;28;20614;-58
2022/06/30 07:45:27;;;;;;;5.05;4.70;;;33.60;99.90;;;;;;5015237;28;20749;-58
2022/06/30 07:47:54;;;;;;;4.75;3.97;;;33.80;99.90;;;;;;5030569;28;20278;-58
2022/06/30 07:50:22;;;;;;;4.00;3.65;;;34.00;99.90;;;;;;5031276;28;20256;-58
2022/06/30 07:52:49;;;;;;;3.95;3.38;;;33.90;99.90;;;;;;5030506;28;20233;-58
2022/06/30 07:55:16;;;;;;;3.65;3.42;;;33.80;99.90;;;;;;5031057;28;20552;-58
2022/06/30 07:57:46;;;;;;;3.65;3.45;;;34.10;99.90;;;;;;5031034;28;20257;-58
2022/06/30 08:00:14;;;;;;;4.13;3.83;;;34.00;99.90;;;;;;5030603;28;20197;-59
2022/06/30 08:02:42;;;;;;;4.57;4.28;;;34.20;99.90;;;;;;5033820;28;20203;-58
2022/06/30 08:05:09;;;;;;;4.20;3.75;;;34.70;99.90;;;;;;5031177;28;20248;-59
2022/06/30 08:07:38;;;;;;;6.00;3.45;;;34.30;99.90;;;;;;5026890;28;20194;-60
2022/06/30 08:10:06;;;;;;;3.53;3.08;;;34.00;99.90;;;;;;5030937;28;20545;-59
2022/06/30 08:12:34;;;;;;;4.32;3.58;;;34.30;99.90;;;;;;5028508;28;20730;-59
2022/06/30 08:15:01;;;;;;;4.57;3.38;;;34.30;99.90;;;;;;5029623;28;20634;-59
2022/06/30 08:17:30;;;;;;;3.67;3.38;;;34.70;99.90;;;;;;5030014;28;20827;-58
2022/06/30 08:19:57;;;;;;;3.85;3.65;;;34.70;99.90;;;;;;5029863;28;20225;-59
2022/06/30 08:22:25;;;;;;;3.95;3.65;;;35.00;99.90;;;;;;5028374;28;20258;-58
2022/06/30 08:24:54;;;;;;;6.78;3.58;;;35.00;99.90;;;;;;5030626;28;20221;-58
2022/06/30 08:27:22;;;;;;;4.50;3.20;;;34.70;99.90;;;;;;5024695;28;20271;-58
2022/06/30 08:29:49;;;;;;;3.75;3.35;;;34.50;99.90;;;;;;5027991;28;20344;-58
2022/06/30 08:32:16;;;;;;;3.58;3.28;;;34.70;99.90;;;;;;5030267;28;20533;-58
2022/06/30 08:34:43;;;;;;;3.15;2.90;;;35.00;99.90;;;;;;5029805;28;20608;-58
2022/06/30 08:37:10;;;;;;;3.65;3.45;;;35.20;98.60;;;;;;5030513;28;20194;-59
2022/06/30 08:42:23;;;;;;;4.38;4.05;;;35.10;99.30;;;;;;5025693;28;20341;-59
2022/06/30 08:45:13;;;;;;;4.28;3.95;;;35.20;99.70;;;;;;5029019;28;20230;-59
2022/06/30 08:47:37;;;;;;;3.97;3.63;;;35.40;99.30;;;;;;5025313;28;20309;-59
2022/06/30 08:50:05;;;;;;;4.75;3.90;;;35.90;99.90;;;;;;5029480;28;20252;-58
2022/06/30 08:52:33;;;;;;;4.47;4.07;;;35.60;98.90;;;;;;5028568;28;20230;-59
2022/06/30 08:55:01;;;;;;;3.42;3.30;;;35.70;99.90;;;;;;5033079;28;20195;-57
2022/06/30 08:57:32;;;;;;;4.53;4.10;;;36.20;99.90;;;;;;5025908;28;20222;-57
2022/06/30 08:59:59;;;;;;;3.50;3.38;;;36.10;99.30;;;;;;5029372;28;20280;-57
2022/06/30 09:02:26;;;;;;;4.35;3.25;;;36.20;97.30;;;;;;5029016;28;20218;-57
2022/06/30 09:04:53;;;;;;;4.30;3.90;;;35.80;96.80;;;;;;5018718;28;20223;-57
2022/06/30 09:07:20;;;;;;;3.78;2.42;;;35.30;98.20;;;;;;5010984;28;20665;-57
2022/06/30 09:09:47;;;;;;;4.28;3.85;;;35.30;97.30;;;;;;5029716;28;20636;-57
2022/06/30 09:12:16;;;;;;;4.05;3.70;;;35.50;97.70;;;;;;5029170;28;20237;-57
2022/06/30 09:14:47;;;;;;;4.20;3.80;;;36.10;98.20;;;;;;5029950;28;20206;-57
2022/06/30 09:17:16;;;;;;;4.80;4.30;;;36.00;97.80;;;;;;5030249;28;20752;-58
2022/06/30 09:19:55;;;;;;;4.05;3.65;;;36.00;99.20;;;;;;5030332;28;20275;-57
2022/06/30 09:22:23;;;;;;;3.95;3.65;;;35.90;97.20;;;;;;5030523;28;20226;-58
2022/06/30 09:24:59;;;;;;;3.80;3.50;;;36.50;99.50;;;;;;5029662;28;20199;-57
2022/06/30 09:27:29;;;;;;;4.00;3.70;;;36.40;95.70;;;;;;5029801;28;20299;-58
2022/06/30 09:30:04;;;;;;;3.25;3.10;;;36.30;95.20;;;;;;5030166;28;20200;-58
2022/06/30 09:32:31;;;;;;;4.20;3.90;;;36.50;96.00;;;;;;5028995;28;20306;-57
2022/06/30 09:35:10;;;;;;;6.32;3.53;;;36.50;97.50;;;;;;5029366;28;20199;-58
2022/06/30 09:37:37;;;;;;;4.13;3.83;;;36.30;96.60;;;;;;5027172;28;20198;-58
2022/06/30 09:40:07;;;;;;;3.55;3.30;;;36.20;97.60;;;;;;5029963;28;20198;-58
2022/06/30 09:42:43;;;;;;;4.30;4.00;;;35.40;98.50;;;;;;5009849;28;20946;-57
2022/06/30 09:45:13;;;;;;;3.38;3.10;;;35.60;97.70;;;;;;5025733;28;20244;-57
2022/06/30 09:47:53;;;;;;;3.67;3.35;;;35.50;95.60;;;;;;5029358;28;20722;-57
2022/06/30 09:50:21;;;;;;;2.92;2.67;;;36.10;95.80;;;;;;5029498;28;20205;-57
2022/06/30 09:53:05;;;;;;;3.17;3.03;;;36.10;96.90;;;;;;5028105;28;20580;-57
2022/06/30 09:55:41;;;;;;;3.45;3.03;;;36.40;94.30;;;;;;5025961;28;20202;-57
2022/06/30 09:58:08;;;;;;;2.47;2.35;;;35.90;94.40;;;;;;5031701;28;20197;-57
2022/06/30 10:00:48;;;;;;;2.88;2.60;;;36.10;94.20;;;;;;5033715;28;20280;-57
2022/06/30 10:03:16;;;;;;;4.35;3.25;;;36.10;95.20;;;;;;5035977;28;20268;-57
2022/06/30 10:05:44;;;;;;;3.78;3.42;;;36.50;93.30;;;;;;5034779;28;20286;-57
2022/06/30 10:08:12;;;;;;;2.90;2.80;;;36.50;94.90;;;;;;5034743;28;20202;-57
2022/06/30 10:10:41;;;;;;;2.70;2.60;;;36.10;95.00;;;;;;5028719;28;20225;-57
2022/06/30 10:13:12;;;;;;;4.53;3.28;;;36.00;95.70;;;;;;5024568;28;20304;-56
2022/06/30 10:15:42;;;;;;;3.58;3.28;;;35.20;94.40;;;;;;5033667;28;20594;-58
2022/06/30 10:18:11;;;;;;;3.50;3.17;;;35.50;94.20;;;;;;5035086;28;20587;-57
2022/06/30 10:20:39;;;;;;;4.45;3.05;;;35.80;96.50;;;;;;5034907;28;20246;-57
2022/06/30 10:23:08;;;;;;;3.22;2.95;;;35.70;94.30;;;;;;5033847;28;20304;-57
2022/06/30 10:25:36;;;;;;;3.30;3.03;;;35.10;95.10;;;;;;5033865;28;20668;-57
2022/06/30 10:28:04;;;;;;;3.80;3.53;;;35.50;96.70;;;;;;5034015;28;20731;-57
2022/06/30 10:30:42;;;;;;;3.60;3.40;;;35.20;97.50;;;;;;5023212;28;20198;-57
2022/06/30 10:33:15;;;;;;;5.75;3.22;;;34.80;98.20;;;;;;5030816;28;20779;-57
2022/06/30 10:35:46;;;;;;;3.45;3.25;;;34.50;98.10;;;;;;5034133;28;20213;-57
2022/06/30 10:38:22;;;;;;;4.30;3.88;;;35.00;97.80;;;;;;5034026;28;20226;-57
2022/06/30 10:40:55;;;;;;;3.58;3.30;;;34.10;98.60;;;;;;5034106;28;20296;-57
2022/06/30 10:43:22;;;;;;;3.40;3.10;;;34.30;97.50;;;;;;5033114;28;20210;-56
2022/06/30 10:46:03;;;;;;;3.28;3.08;;;34.90;96.20;;;;;;5033972;28;20281;-56
2022/06/30 10:48:54;;;;;;;3.38;2.97;;;35.40;95.80;;;;;;5027891;28;20274;-56
2022/06/30 10:51:22;;;;;;;3.78;3.38;;;35.40;96.20;;;;;;5024063;28;20320;-57
2022/06/30 10:53:54;;;;;;;4.05;3.60;;;35.20;98.10;;;;;;5026955;28;20231;-57
2022/06/30 10:56:23;;;;;;;3.80;2.80;;;35.20;97.40;;;;;;5027888;28;20801;-57
2022/06/30 10:59:14;;;;;;;2.90;2.80;;;35.00;98.80;;;;;;5024856;28;20226;-57
2022/06/30 11:02:01;;;;;;;9.50;2.72;;;34.90;97.90;;;;;;5023164;28;20789;-56
2022/06/30 11:04:30;;;;;;;3.35;3.15;;;34.70;96.60;;;;;;5031463;28;20203;-56
2022/06/30 11:07:02;;;;;;;3.38;3.05;;;34.20;98.40;;;;;;5023226;28;20258;-57
2022/06/30 11:10:01;;;;;;;4.30;3.45;;;33.40;99.40;;;;;;5027880;28;20265;-56
2022/06/30 11:12:55;;;;;;;3.60;3.40;;;32.90;99.00;;;;;;5024235;28;20260;-56
2022/06/30 11:15:23;;;;;;;3.28;3.05;;;32.30;99.90;;;;;;5026906;28;20210;-57
2022/06/30 11:17:54;;;;;;;5.07;3.65;;;32.40;98.20;;;;;;5030736;28;20194;-56
2022/06/30 11:20:22;;;;;;;3.05;2.85;;;31.80;99.90;;;;;;5026853;28;20206;-56
2022/06/30 11:22:51;;;;;;;3.03;2.78;;;31.40;99.90;;;;;;5022204;28;20202;-56
2022/06/30 11:28:17;;;;;;;4.13;3.83;;;31.10;99.90;;;;;;5026505;28;20234;-56
2022/06/30 11:30:44;;;;;;;3.95;3.47;;;30.90;99.90;;;;;;5029816;28;20225;-57
2022/06/30 11:33:13;;;;;;;4.57;2.97;;;31.00;99.90;;;;;;5026126;28;20195;-57
2022/06/30 11:35:41;;;;;;;5.47;3.55;;;31.20;99.90;;;;;;5028773;28;20199;-57
2022/06/30 11:38:08;;;;;;;3.78;3.33;;;31.50;99.90;;;;;;5030716;28;20194;-57
2022/06/30 11:40:36;;;;;;;6.47;3.65;;;31.80;99.90;;;;;;5023835;28;20222;-56
2022/06/30 11:43:21;;;;;;;6.80;3.65;;;31.70;99.90;;;;;;5026988;28;20209;-57
2022/06/30 11:45:48;;;;;;;8.65;4.28;;;31.20;99.90;;;;;;5024700;28;20213;-56
2022/06/30 11:48:17;;;;;;;3.83;3.63;;;31.00;99.90;;;;;;5029468;28;20218;-56
2022/06/30 11:50:45;;;;;;;3.55;3.45;;;30.90;99.90;;;;;;5028274;28;20280;-56
2022/06/30 11:53:12;;;;;;;3.75;3.42;;;30.80;99.90;;;;;;5025017;28;20198;-56
2022/06/30 11:55:42;;;;;;;5.60;3.67;;;30.90;99.90;;;;;;5024115;28;20206;-56
2022/06/30 11:58:08;;;;;;;3.53;3.22;;;30.80;99.90;;;;;;5027894;28;20194;-57
2022/06/30 12:00:35;;;;;;;3.83;3.40;;;30.60;99.90;;;;;;5022997;28;20246;-56
2022/06/30 12:03:04;;;;;;;4.85;4.00;;;30.60;99.90;;;;;;5025421;28;20715;-56
2022/06/30 12:05:31;;;;;;;5.38;3.88;;;30.30;99.90;;;;;;5027034;28;20210;-57
2022/06/30 12:08:00;;;;;;;5.00;3.85;;;30.20;99.90;;;;;;5023775;28;20305;-56
2022/06/30 12:10:29;;;;;;;3.72;3.42;;;29.80;99.90;;;;;;5059694;22;20233;-50
2022/06/30 12:12:58;;;;;;;9.25;4.13;;;29.60;99.90;;;;;;5069583;28;20286;-50
2022/06/30 12:15:25;;;;;;;3.25;3.15;;;29.60;99.90;;;;;;5068985;28;20202;-50
2022/06/30 12:17:53;;;;;;;4.07;3.60;;;29.50;99.90;;;;;;5066155;28;20285;-49
2022/06/30 12:20:22;;;;;;;6.70;3.88;;;29.50;99.90;;;;;;5061680;28;20592;-49
2022/06/30 12:22:51;;;;;;;3.20;3.03;;;29.40;99.90;;;;;;5059509;28;20197;-49
2022/06/30 12:25:20;;;;;;;5.30;3.53;;;29.20;99.90;;;;;;5061894;28;20197;-49
2022/06/30 12:27:49;;;;;;;3.10;2.65;;;29.10;99.90;;;;;;5062893;28;20236;-50
2022/06/30 12:30:17;;;;;;;5.10;3.15;;;29.00;99.90;;;;;;5064518;28;20278;-50
2022/06/30 12:32:53;;;;;;;3.30;3.20;;;28.90;99.90;;;;;;5071083;28;20201;-50
2022/06/30 12:35:22;;;;;;;3.45;3.20;;;28.80;99.90;;;;;;5063478;28;20742;-50
2022/06/30 12:37:51;;;;;;;4.32;3.90;;;28.60;99.90;;;;;;5052982;28;20939;-50
2022/06/30 12:40:22;;;;;;;7.30;3.45;;;28.40;99.90;;;;;;5057209;28;20279;-50
2022/06/30 12:42:51;;;;;;;4.30;3.97;;;28.30;99.90;;;;;;5058513;28;20197;-50
2022/06/30 12:45:55;;;;;;;3.97;3.35;;;28.20;99.90;;;;;;5070966;28;20232;-50
2022/06/30 12:48:43;;;;;;;3.75;3.42;;;28.30;99.90;;;;;;5066395;28;20217;-50
2022/06/30 12:51:12;;;;;;;3.63;3.38;;;28.20;99.90;;;;;;5063369;28;20270;-50
2022/06/30 12:53:40;;;;;;;3.80;3.45;;;28.10;99.90;;;;;;5072383;28;20197;-50
2022/06/30 12:56:11;;;;;;;4.25;3.80;;;28.00;99.90;;;;;;5072179;28;20219;-50
2022/06/30 12:58:53;;;;;;;7.18;3.85;;;28.10;99.90;;;;;;5071794;28;20280;-51
2022/06/30 13:01:23;;;;;;;4.32;4.00;;;27.90;99.90;;;;;;5070556;28;20311;-51
2022/06/30 13:03:59;;;;;;;3.92;3.63;;;27.70;99.90;;;;;;5072196;28;20209;-51
2022/06/30 13:06:29;;;;;;;4.07;3.78;;;27.70;99.90;;;;;;5071865;28;20208;-51
2022/06/30 13:08:56;;;;;;;5.82;3.92;;;27.60;99.90;;;;;;5070998;28;20217;-50
2022/06/30 13:11:26;;;;;;;4.35;4.03;;;27.40;99.90;;;;;;5070947;28;20283;-51